createdAt,value
2023-02-01T00:02:40.653Z,5.71
2023-02-01T00:05:42.088Z,5.70
2023-02-01T00:08:43.467Z,5.70
2023-02-01T00:11:45.317Z,5.73
2023-02-01T00:14:47.261Z,5.76
2023-02-01T00:17:48.657Z,5.75
2023-02-01T00:20:50.052Z,5.75
2023-02-01T00:23:51.457Z,5.75
2023-02-01T00:26:52.909Z,5.68
2023-02-01T00:29:56.218Z,5.69
2023-02-01T00:32:57.599Z,5.71
2023-02-01T00:36:04.295Z,5.70
2023-02-01T00:39:05.760Z,5.68
2023-02-01T00:42:07.182Z,5.74
2023-02-01T00:45:09.134Z,5.75
2023-02-01T00:48:10.553Z,5.71
2023-02-01T00:51:15.735Z,5.71
2023-02-01T00:54:17.172Z,5.79
2023-02-01T00:57:18.675Z,5.73
2023-02-01T01:00:20.371Z,5.79
2023-02-01T01:03:21.943Z,5.81
2023-02-01T01:06:26.313Z,5.82
2023-02-01T01:09:27.843Z,5.78
2023-02-01T01:12:30.357Z,5.82
2023-02-01T01:15:31.805Z,5.76
2023-02-01T01:18:34.498Z,5.80
2023-02-01T01:21:35.893Z,5.81
2023-02-01T01:24:37.446Z,5.85
2023-02-01T01:27:38.875Z,5.83
2023-02-01T01:30:40.586Z,5.83
2023-02-01T01:33:42.368Z,5.83
2023-02-01T01:36:43.814Z,5.82
2023-02-01T01:39:45.270Z,5.86
2023-02-01T01:42:46.723Z,5.83
2023-02-01T01:45:50.457Z,5.86
2023-02-01T01:48:58.058Z,5.87
2023-02-01T01:52:03.488Z,5.85
2023-02-01T01:55:05.679Z,5.80
2023-02-01T01:58:11.049Z,5.88
2023-02-01T02:01:12.528Z,5.88
2023-02-01T02:04:14.413Z,5.97
2023-02-01T02:07:20.865Z,5.94
2023-02-01T02:10:42.481Z,5.91
2023-02-01T02:13:50.639Z,5.96
2023-02-01T02:17:22.745Z,5.86
2023-02-01T02:20:46.177Z,5.84
2023-02-01T02:24:29.530Z,5.88
2023-02-01T02:28:14.482Z,5.89
2023-02-01T02:31:49.576Z,5.90
2023-02-01T02:34:59.871Z,5.90
2023-02-01T02:38:25.128Z,5.87
2023-02-01T02:41:51.355Z,5.93
2023-02-01T02:45:27.416Z,5.90
2023-02-01T02:49:13.039Z,5.89
2023-02-01T02:52:56.367Z,5.86
2023-02-01T02:56:18.202Z,5.94
2023-02-01T02:59:42.771Z,5.94
2023-02-01T03:03:04.283Z,5.92
2023-02-01T03:06:15.755Z,5.90
2023-02-01T03:09:28.303Z,5.88
2023-02-01T03:12:48.395Z,5.91
2023-02-01T03:16:16.455Z,5.94
2023-02-01T03:19:21.044Z,5.88
2023-02-01T03:22:27.813Z,5.95
2023-02-01T03:25:33.418Z,5.92
2023-02-01T03:28:38.026Z,5.87
2023-02-01T03:31:41.716Z,5.86
2023-02-01T03:34:44.938Z,5.89
2023-02-01T03:37:46.739Z,5.91
2023-02-01T03:40:56.816Z,5.92
2023-02-01T03:44:04.997Z,5.92
2023-02-01T03:47:11.506Z,5.88
2023-02-01T03:50:26.265Z,5.88
2023-02-01T03:53:29.730Z,6.02
2023-02-01T03:56:34.096Z,5.92
2023-02-01T03:59:40.145Z,5.99
2023-02-01T04:02:41.954Z,5.94
2023-02-01T04:05:43.418Z,6.10
2023-02-01T04:08:45.504Z,6.05
2023-02-01T04:11:46.902Z,5.97
2023-02-01T04:14:48.279Z,6.00
2023-02-01T04:17:49.694Z,6.00
2023-02-01T04:20:51.113Z,5.96
2023-02-01T04:23:52.879Z,5.94
2023-02-01T04:26:54.345Z,5.93
2023-02-01T04:29:58.446Z,5.94
2023-02-01T04:32:59.963Z,5.87
2023-02-01T04:36:01.357Z,5.86
2023-02-01T04:39:02.766Z,5.84
2023-02-01T04:42:04.733Z,5.83
2023-02-01T04:45:06.854Z,5.89
2023-02-01T04:48:08.256Z,5.87
2023-02-01T04:51:11.253Z,5.91
2023-02-01T04:54:12.708Z,5.90
2023-02-01T04:57:15.783Z,5.84
2023-02-01T05:00:17.635Z,5.81
2023-02-01T05:03:19.495Z,5.90
2023-02-01T05:06:21.333Z,5.90
2023-02-01T05:09:22.789Z,5.92
2023-02-01T05:12:42.779Z,5.83
2023-02-01T05:15:44.309Z,5.81
2023-02-01T05:18:46.460Z,5.75
2023-02-01T05:21:47.844Z,5.82
2023-02-01T05:24:49.302Z,5.79
2023-02-01T05:27:50.798Z,5.81
2023-02-01T05:30:52.270Z,5.86
2023-02-01T05:33:53.749Z,5.82
2023-02-01T05:36:55.234Z,5.85
2023-02-01T05:39:56.725Z,5.81
2023-02-01T05:42:58.097Z,5.82
2023-02-01T05:45:59.560Z,5.85
2023-02-01T05:49:01.034Z,5.90
2023-02-01T05:52:02.990Z,5.79
2023-02-01T05:55:04.770Z,5.75
2023-02-01T05:58:06.588Z,5.69
2023-02-01T06:01:08.023Z,5.66
2023-02-01T06:04:09.467Z,5.59
2023-02-01T06:07:11.291Z,5.60
2023-02-01T06:10:12.752Z,5.60
2023-02-01T06:13:14.134Z,5.60
2023-02-01T06:16:16.386Z,5.56
2023-02-01T06:19:17.810Z,5.48
2023-02-01T06:22:19.298Z,5.50
2023-02-01T06:25:21.889Z,5.62
2023-02-01T06:28:24.011Z,5.66
2023-02-01T06:31:26.699Z,5.58
2023-02-01T06:34:28.415Z,5.51
2023-02-01T06:37:30.371Z,5.49
2023-02-01T06:40:31.755Z,5.58
2023-02-01T06:43:33.776Z,5.59
2023-02-01T06:46:35.295Z,5.56
2023-02-01T06:49:36.798Z,5.56
2023-02-01T06:52:38.185Z,5.58
2023-02-01T06:55:39.687Z,5.59
2023-02-01T06:58:41.333Z,5.66
2023-02-01T07:01:42.724Z,5.71
2023-02-01T07:04:44.157Z,5.68
2023-02-01T07:07:45.595Z,5.62
2023-02-01T07:10:47.066Z,5.56
2023-02-01T07:13:49.115Z,5.58
2023-02-01T07:16:50.528Z,5.64
2023-02-01T07:19:51.905Z,5.65
2023-02-01T07:22:57.810Z,5.71
2023-02-01T07:26:03.076Z,5.74
2023-02-01T07:29:04.485Z,5.71
2023-02-01T07:32:06.110Z,5.78
2023-02-01T07:35:07.908Z,5.88
2023-02-01T07:38:09.378Z,5.85
2023-02-01T07:41:10.870Z,5.92
2023-02-01T07:44:12.259Z,5.92
2023-02-01T07:47:13.680Z,6.10
2023-02-01T07:50:15.384Z,6.02
2023-02-01T07:53:16.941Z,6.04
2023-02-01T07:56:20.180Z,5.97
2023-02-01T07:59:21.745Z,5.94
2023-02-01T08:02:23.176Z,5.95
2023-02-01T08:05:24.708Z,5.99
2023-02-01T08:08:26.166Z,5.91
2023-02-01T08:11:28.285Z,5.87
2023-02-01T08:14:29.762Z,5.87
2023-02-01T08:17:31.498Z,5.91
2023-02-01T08:20:35.284Z,5.97
2023-02-01T08:23:38.297Z,6.01
2023-02-01T08:26:39.858Z,5.98
2023-02-01T08:29:41.259Z,6.01
2023-02-01T08:32:42.711Z,5.99
2023-02-01T08:35:44.681Z,6.00
2023-02-01T08:38:46.385Z,6.12
2023-02-01T08:42:07.763Z,6.24
2023-02-01T08:45:09.706Z,6.27
2023-02-01T08:48:11.192Z,6.32
2023-02-01T08:51:14.168Z,6.29
2023-02-01T08:54:16.107Z,6.37
2023-02-01T08:57:18.030Z,6.41
2023-02-01T09:00:19.576Z,6.53
2023-02-01T09:03:21.191Z,6.53
2023-02-01T09:06:22.690Z,6.58
2023-02-01T09:09:24.662Z,6.61
2023-02-01T09:12:26.099Z,6.59
2023-02-01T09:15:27.510Z,6.66
2023-02-01T09:18:29.178Z,6.69
2023-02-01T09:21:30.688Z,6.74
2023-02-01T09:24:32.148Z,6.79
2023-02-01T09:27:33.541Z,6.92
2023-02-01T09:30:35.291Z,6.86
2023-02-01T09:33:36.761Z,6.95
2023-02-01T09:36:38.131Z,6.95
2023-02-01T09:39:39.522Z,6.85
2023-02-01T09:43:02.575Z,6.80
2023-02-01T09:46:19.500Z,6.78
2023-02-01T09:49:27.087Z,6.70
2023-02-01T09:52:59.327Z,6.85
2023-02-01T09:56:13.150Z,7.03
2023-02-01T09:59:33.333Z,7.06
2023-02-01T10:02:37.733Z,7.09
2023-02-01T10:06:01.832Z,7.13
2023-02-01T10:09:21.370Z,7.18
2023-02-01T10:12:41.619Z,7.20
2023-02-01T10:16:00.684Z,7.21
2023-02-01T10:19:40.574Z,7.33
2023-02-01T10:23:13.790Z,7.33
2023-02-01T10:26:21.464Z,7.41
2023-02-01T10:29:28.075Z,7.35
2023-02-01T10:32:38.170Z,7.32
2023-02-01T10:35:42.469Z,7.27
2023-02-01T10:38:45.116Z,7.25
2023-02-01T10:41:48.063Z,7.19
2023-02-01T10:44:49.571Z,7.16
2023-02-01T10:47:53.302Z,7.05
2023-02-01T10:50:59.817Z,7.02
2023-02-01T10:54:14.587Z,7.04
2023-02-01T10:57:25.567Z,7.05
2023-02-01T11:00:27.729Z,7.16
2023-02-01T11:03:39.447Z,7.16
2023-02-01T11:06:44.377Z,7.17
2023-02-01T11:09:51.658Z,7.19
2023-02-01T11:12:56.283Z,7.23
2023-02-01T11:15:58.417Z,7.24
2023-02-01T11:19:00.153Z,7.29
2023-02-01T11:22:01.989Z,7.35
2023-02-01T11:25:10.359Z,7.33
2023-02-01T11:28:12.522Z,7.33
2023-02-01T11:31:15.177Z,7.25
2023-02-01T11:34:25.612Z,7.27
2023-02-01T11:37:42.232Z,7.12
2023-02-01T11:40:43.947Z,7.12
2023-02-01T11:44:00.007Z,7.14
2023-02-01T11:47:23.042Z,7.22
2023-02-01T11:50:45.012Z,7.19
2023-02-01T11:54:05.812Z,7.23
2023-02-01T11:57:27.131Z,7.18
2023-02-01T12:01:02.497Z,7.23
2023-02-01T12:04:04.292Z,7.30
2023-02-01T12:07:24.842Z,7.37
2023-02-01T12:10:50.647Z,7.24
2023-02-01T12:14:13.837Z,7.34
2023-02-01T12:17:57.068Z,7.44
2023-02-01T12:21:10.989Z,7.35
2023-02-01T12:24:30.757Z,7.41
2023-02-01T12:27:48.579Z,7.29
2023-02-01T12:31:07.905Z,7.29
2023-02-01T12:34:31.272Z,7.34
2023-02-01T12:37:56.446Z,7.36
2023-02-01T12:41:11.913Z,7.25
2023-02-01T12:44:33.226Z,7.24
2023-02-01T12:48:28.561Z,7.29
2023-02-01T12:51:35.462Z,7.27
2023-02-01T12:54:45.567Z,7.28
2023-02-01T12:57:52.806Z,7.30
2023-02-01T13:01:02.284Z,7.28
2023-02-01T13:04:12.480Z,7.29
2023-02-01T13:07:20.071Z,7.33
2023-02-01T13:10:44.502Z,7.38
2023-02-01T13:13:56.300Z,7.39
2023-02-01T13:17:03.738Z,7.37
2023-02-01T13:20:36.069Z,7.38
2023-02-01T13:23:40.424Z,7.35
2023-02-01T13:26:42.303Z,7.34
2023-02-01T13:29:54.219Z,7.38
2023-02-01T13:33:53.813Z,7.41
2023-02-01T13:37:02.788Z,7.39
2023-02-01T13:40:34.874Z,7.40
2023-02-01T13:43:39.785Z,7.36
2023-02-01T13:46:44.648Z,7.37
2023-02-01T13:49:46.417Z,7.43
2023-02-01T13:52:55.917Z,7.41
2023-02-01T13:55:59.353Z,7.39
2023-02-01T13:59:39.138Z,7.37
2023-02-01T14:02:43.657Z,7.38
2023-02-01T14:05:44.992Z,7.36
2023-02-01T14:08:48.205Z,7.33
2023-02-01T14:11:55.073Z,7.34
2023-02-01T14:15:24.543Z,7.36
2023-02-01T14:18:38.618Z,7.40
2023-02-01T14:21:59.674Z,7.34
2023-02-01T14:25:01.148Z,7.40
2023-02-01T14:28:10.547Z,7.38
2023-02-01T14:31:23.675Z,7.46
2023-02-01T14:34:35.676Z,7.51
2023-02-01T14:37:39.954Z,7.40
2023-02-01T14:40:41.473Z,7.41
2023-02-01T14:44:13.478Z,7.46
2023-02-01T14:47:21.120Z,7.46
2023-02-01T14:50:40.969Z,7.47
2023-02-01T14:53:44.428Z,7.37
2023-02-01T14:56:46.973Z,7.50
2023-02-01T14:59:54.786Z,7.43
2023-02-01T15:03:18.476Z,7.36
2023-02-01T15:06:41.691Z,7.38
2023-02-01T15:09:48.948Z,7.50
2023-02-01T15:12:51.428Z,7.53
2023-02-01T15:16:06.974Z,7.57
2023-02-01T15:19:15.614Z,7.60
2023-02-01T15:22:20.269Z,7.59
2023-02-01T15:25:25.598Z,7.55
2023-02-01T15:28:27.634Z,7.54
2023-02-01T15:31:38.025Z,7.52
2023-02-01T15:34:48.756Z,7.66
2023-02-01T15:37:51.422Z,7.61
2023-02-01T15:41:18.067Z,7.61
2023-02-01T15:44:41.444Z,7.60
2023-02-01T15:47:48.623Z,7.63
2023-02-01T15:50:51.100Z,7.58
2023-02-01T15:53:57.860Z,7.61
2023-02-01T15:57:03.889Z,7.59
2023-02-01T16:00:20.767Z,7.54
2023-02-01T16:03:43.570Z,7.55
2023-02-01T16:06:57.297Z,7.57
2023-02-01T16:10:07.212Z,7.51
2023-02-01T16:13:09.107Z,7.58
2023-02-01T16:16:14.724Z,7.51
2023-02-01T16:19:16.330Z,7.53
2023-02-01T16:22:17.778Z,7.46
2023-02-01T16:25:19.363Z,7.46
2023-02-01T16:28:20.740Z,7.44
2023-02-01T16:31:28.169Z,7.45
2023-02-01T16:34:29.742Z,7.47
2023-02-01T16:37:33.263Z,7.45
2023-02-01T16:40:35.507Z,7.38
2023-02-01T16:43:36.993Z,7.48
2023-02-01T16:46:43.959Z,7.61
2023-02-01T16:49:45.895Z,7.58
2023-02-01T16:52:47.642Z,7.59
2023-02-01T16:55:50.307Z,7.54
2023-02-01T16:58:51.759Z,7.54
2023-02-01T17:01:53.137Z,7.55
2023-02-01T17:04:54.624Z,7.55
2023-02-01T17:07:59.476Z,7.55
2023-02-01T17:11:01.136Z,7.59
2023-02-01T17:14:18.901Z,7.55
2023-02-01T17:17:32.818Z,7.54
2023-02-01T17:20:39.366Z,7.47
2023-02-01T17:23:41.091Z,7.46
2023-02-01T17:26:43.902Z,7.44
2023-02-01T17:29:47.013Z,7.54
2023-02-01T17:32:48.640Z,7.56
2023-02-01T17:35:50.839Z,7.57
2023-02-01T17:39:04.832Z,7.50
2023-02-01T17:42:11.545Z,7.43
2023-02-01T17:45:34.565Z,7.45
2023-02-01T17:48:36.031Z,7.47
2023-02-01T17:51:38.644Z,7.44
2023-02-01T17:54:40.107Z,7.45
2023-02-01T17:57:41.550Z,7.54
2023-02-01T18:00:44.386Z,7.47
2023-02-01T18:03:45.817Z,7.47
2023-02-01T18:06:47.199Z,7.41
2023-02-01T18:09:48.658Z,7.51
2023-02-01T18:12:50.185Z,7.47
2023-02-01T18:15:51.568Z,7.43
2023-02-01T18:18:53.451Z,7.50
2023-02-01T18:21:56.851Z,7.55
2023-02-01T18:24:58.237Z,7.51
2023-02-01T18:27:59.677Z,7.45
2023-02-01T18:31:03.025Z,7.42
2023-02-01T18:34:04.561Z,7.44
2023-02-01T18:37:06.121Z,7.43
2023-02-01T18:40:11.492Z,7.42
2023-02-01T18:43:14.006Z,7.43
2023-02-01T18:46:15.795Z,7.44
2023-02-01T18:49:18.716Z,7.44
2023-02-01T18:52:20.205Z,7.45
2023-02-01T18:55:22.715Z,7.43
2023-02-01T18:58:26.303Z,7.47
2023-02-01T19:01:27.811Z,7.43
2023-02-01T19:04:30.187Z,7.47
2023-02-01T19:07:31.847Z,7.42
2023-02-01T19:10:34.235Z,7.41
2023-02-01T19:13:36.621Z,7.43
2023-02-01T19:16:39.776Z,7.39
2023-02-01T19:19:42.063Z,7.45
2023-02-01T19:22:43.931Z,7.47
2023-02-01T19:25:47.489Z,7.42
2023-02-01T19:28:49.055Z,7.44
2023-02-01T19:31:50.506Z,7.42
2023-02-01T19:34:51.994Z,7.50
2023-02-01T19:37:53.388Z,7.48
2023-02-01T19:40:58.088Z,7.46
2023-02-01T19:43:59.503Z,7.44
2023-02-01T19:47:01.197Z,7.41
2023-02-01T19:50:06.879Z,7.50
2023-02-01T19:53:08.398Z,7.48
2023-02-01T19:56:10.090Z,7.52
2023-02-01T19:59:12.902Z,7.55
2023-02-01T20:02:14.800Z,7.52
2023-02-01T20:05:16.991Z,7.44
2023-02-01T20:08:18.836Z,7.51
2023-02-01T20:11:20.348Z,7.49
2023-02-01T20:14:24.166Z,7.51
2023-02-01T20:17:25.692Z,7.51
2023-02-01T20:20:28.539Z,7.41
2023-02-01T20:23:30.031Z,7.41
2023-02-01T20:26:34.401Z,7.43
2023-02-01T20:29:36.617Z,7.44
2023-02-01T20:32:38.033Z,7.43
2023-02-01T20:35:44.274Z,7.41
2023-02-01T20:38:45.861Z,7.46
2023-02-01T20:41:47.353Z,7.43
2023-02-01T20:44:48.802Z,7.42
2023-02-01T20:47:52.455Z,7.45
2023-02-01T20:50:58.071Z,7.43
2023-02-01T20:53:59.505Z,7.45
2023-02-01T20:57:00.901Z,7.43
2023-02-01T21:00:04.328Z,7.43
2023-02-01T21:03:05.793Z,7.39
2023-02-01T21:06:08.226Z,7.45
2023-02-01T21:09:09.627Z,7.49
2023-02-01T21:12:11.181Z,7.45
2023-02-01T21:15:12.588Z,7.45
2023-02-01T21:18:14.000Z,7.46
2023-02-01T21:21:15.401Z,7.51
2023-02-01T21:24:16.773Z,7.56
2023-02-01T21:27:18.173Z,7.55
2023-02-01T21:30:19.540Z,7.53
2023-02-01T21:33:20.975Z,7.56
2023-02-01T21:36:22.393Z,7.61
2023-02-01T21:39:23.820Z,7.55
2023-02-01T21:42:26.511Z,7.56
2023-02-01T21:45:27.905Z,7.53
2023-02-01T21:48:29.998Z,7.52
2023-02-01T21:51:52.417Z,7.57
2023-02-01T21:54:59.191Z,7.51
2023-02-01T21:58:00.577Z,7.54
2023-02-01T22:01:01.999Z,7.62
2023-02-01T22:04:04.186Z,7.59
2023-02-01T22:07:05.612Z,7.54
2023-02-01T22:10:07.384Z,7.52
2023-02-01T22:13:09.207Z,7.52
2023-02-01T22:16:10.639Z,7.51
2023-02-01T22:19:12.848Z,7.47
2023-02-01T22:22:14.232Z,7.64
2023-02-01T22:25:15.664Z,7.57
2023-02-01T22:28:30.430Z,7.50
2023-02-01T22:31:35.961Z,7.50
2023-02-01T22:34:37.534Z,7.55
2023-02-01T22:37:39.137Z,7.56
2023-02-01T22:40:40.504Z,7.54
2023-02-01T22:43:42.100Z,7.47
2023-02-01T22:46:44.562Z,7.51
2023-02-01T22:49:45.944Z,7.52
2023-02-01T22:52:47.379Z,7.47
2023-02-01T22:55:48.760Z,7.58
2023-02-01T22:58:54.781Z,7.51
2023-02-01T23:01:56.173Z,7.48
2023-02-01T23:04:57.581Z,7.53
2023-02-01T23:07:59.003Z,7.54
2023-02-01T23:11:02.437Z,7.56
2023-02-01T23:14:04.230Z,7.55
2023-02-01T23:17:05.610Z,7.54
2023-02-01T23:20:11.026Z,7.49
2023-02-01T23:23:12.444Z,7.56
2023-02-01T23:26:14.529Z,7.49
2023-02-01T23:29:18.065Z,7.53
2023-02-01T23:32:20.678Z,7.54
2023-02-01T23:35:22.262Z,7.51
2023-02-01T23:38:24.493Z,7.50
2023-02-01T23:41:29.832Z,7.48
2023-02-01T23:44:31.855Z,7.43
2023-02-01T23:47:33.473Z,7.43
2023-02-01T23:50:34.867Z,7.47
2023-02-01T23:53:36.279Z,7.46
2023-02-01T23:56:40.572Z,7.40
2023-02-01T23:59:41.970Z,7.41
